MGLL weather

La Libertad Airport
La Libertad, Peten, Guatemala

Public forecast

Using degrees Celsius for public forecast. Weather courtesy of forecast.io.

Closest aviation weather report (METAR) to La Libertad Airport

Closest report is Mundo Maya International Airport, 18.5 nm (34.3 km) ENE. Retrieved 2019/10/22 02:00 UTC (51 minutes ago):

MGMM 220200Z 09006KT 9999 FEW020 24/21 Q1012 A2988 FEW090

Closest aviation forecast (TAF) to La Libertad Airport

Forecast is more than 12 hours old.

Closest forecast is Mundo Maya International Airport, 18.5 nm (34.3 km) ENE. Retrieved 2019/09/22 00:00 UTC (1 month ago):

TAF MGMM 222300Z 2300/2324 00000KT 9999 SCT016 BKN080 TX33/2320Z TN23/2312Z TEMPO 2302/2308 30008KT 7000 TSRA SCT030TCU FEW035CB BECMG 2315/2315 VRB06KT SCT020 TEMPO 2320/2324 7000 TSRA SCT020TCU FEW025CB